Kezdőlap
METAR-TAF:

METAR-TAF

Repülőterek :

Tri-Township Airport

Savanna, Illinois, Amerikai Egyesült Államok

földrajzi szélesség: 42-02-45N, földrajzi hosszúság: 090-06-28W, magasság: 188 m

Jelenlegi meteorológiai megfigyelések

A jelentés 33 perccel ezelõtt készült, 21:55 UTC
Déli szél 9 kt
Hőmérséklet 10°C
Páratartalom 46%
Légköri nyomás 1017 hPa
Látótávolság: 16.1 km
Derült ég

METAR: KSFY 222155Z AUTO 19009KT 10SM CLR 10/M01 A3004 RMK AO2

Idő: 16:28 (22:28 UTC)


TAF: hiányzik

Meteorológiai megfigyelések és előrejelzések több, mint 4000 repülőtéren (METAR és TAF jelentéseket).

A térképen piros és sárga pontok jelzik az elérhető meteorológiai állomásokat.

Mozgassa az egeret a pont fölött, hogy megjelenjen az állomás neve.

Azután kattintson az időjárási megfigyelések és előrejelzések megtekintéséhez.

A térkép megváltoztatása: kattintson a fekete keresztel jelölt zöld gombra ráközelítéshez, a vonallal jelölt zöld gombra távolításhoz, vagy a zöld nyilakra a szomszédos térképek eléréséhez.


METAR-TAF: